createdAt,value
2022-10-02T00:00:11.142Z,12.3
2022-10-02T00:02:48.186Z,12.3
2022-10-02T00:05:11.315Z,12.2
2022-10-02T00:10:11.233Z,12.1
2022-10-02T00:12:41.250Z,12.1
2022-10-02T00:15:11.436Z,12
2022-10-02T00:20:11.327Z,11.9
2022-10-02T00:22:41.356Z,11.9
2022-10-02T00:30:11.447Z,11.8
2022-10-02T00:32:48.494Z,11.8
2022-10-02T00:35:11.597Z,11.9
2022-10-02T00:37:41.487Z,12
2022-10-02T00:40:18.538Z,12.1
2022-10-02T00:45:11.596Z,12.3
2022-10-02T00:47:41.585Z,12.2
2022-10-02T00:50:11.618Z,12.2
2022-10-02T00:55:11.681Z,12.2
2022-10-02T00:57:41.673Z,12.2
2022-10-02T01:00:11.796Z,12.2
2022-10-02T01:02:41.735Z,12.1
2022-10-02T01:05:11.797Z,12.1
2022-10-02T01:07:41.782Z,12.1
2022-10-02T01:10:11.810Z,12
2022-10-02T01:12:41.814Z,12
2022-10-02T01:15:11.858Z,12
2022-10-02T01:17:41.883Z,11.9
2022-10-02T01:20:11.899Z,11.8
2022-10-02T01:22:41.923Z,11.8
2022-10-02T01:27:41.974Z,11.7
2022-10-02T01:30:11.999Z,11.7
2022-10-02T01:32:42.023Z,11.7
2022-10-02T01:35:12.154Z,11.6
2022-10-02T01:37:42.053Z,11.5
2022-10-02T01:42:42.116Z,11.5
2022-10-02T01:47:42.162Z,11.5
2022-10-02T01:50:12.194Z,11.4
2022-10-02T01:52:42.233Z,11.5
2022-10-02T01:55:12.253Z,11.4
2022-10-02T01:57:42.247Z,11.3
2022-10-02T02:00:12.262Z,11.3
2022-10-02T02:05:12.443Z,11.2
2022-10-02T02:07:42.357Z,11.2
2022-10-02T02:10:12.368Z,11.2
2022-10-02T02:12:42.388Z,11.2
2022-10-02T02:20:12.470Z,11
2022-10-02T02:25:12.508Z,11
2022-10-02T02:27:42.539Z,11
2022-10-02T02:32:46.858Z,10.9
2022-10-02T02:37:46.901Z,10.8
2022-10-02T02:40:16.968Z,10.9
2022-10-02T02:42:46.964Z,10.8
2022-10-02T02:47:47.009Z,10.8
2022-10-02T02:52:54.097Z,10.8
2022-10-02T02:55:17.079Z,10.8
2022-10-02T02:57:47.113Z,10.8
2022-10-02T03:02:47.146Z,10.9
2022-10-02T03:05:17.172Z,10.8
2022-10-02T03:07:47.197Z,10.8
2022-10-02T03:10:17.227Z,10.9
2022-10-02T03:12:47.239Z,11
2022-10-02T03:15:17.421Z,11
2022-10-02T03:17:47.294Z,11
2022-10-02T03:22:47.340Z,11.1
2022-10-02T03:25:17.361Z,11.1
2022-10-02T03:30:17.619Z,11.2
2022-10-02T03:32:47.422Z,11.1
2022-10-02T03:35:17.644Z,11.2
2022-10-02T03:37:47.462Z,11.2
2022-10-02T03:42:47.513Z,11.2
2022-10-02T03:47:47.567Z,11.4
2022-10-02T03:50:17.597Z,11.2
2022-10-02T03:52:47.616Z,11.3
2022-10-02T04:00:17.691Z,11.3
2022-10-02T04:07:52.422Z,11.2
2022-10-02T04:10:17.787Z,11.1
2022-10-02T04:12:47.799Z,11.2
2022-10-02T04:15:24.859Z,11.2
2022-10-02T04:17:47.836Z,11.3
2022-10-02T04:20:17.883Z,11.3
2022-10-02T04:22:47.989Z,11.4
2022-10-02T04:25:17.908Z,11.4
2022-10-02T04:27:48.095Z,11.4
2022-10-02T04:30:24.987Z,11.4
2022-10-02T04:35:19.650Z,11.3
2022-10-02T04:37:48.084Z,11.3
2022-10-02T04:40:18.058Z,11.3
2022-10-02T04:42:48.082Z,11.3
2022-10-02T04:45:18.232Z,11.3
2022-10-02T04:47:48.126Z,11.2
2022-10-02T04:50:25.178Z,11.2
2022-10-02T05:00:18.243Z,11.2
2022-10-02T05:02:49.832Z,11.2
2022-10-02T05:05:18.468Z,11.2
2022-10-02T05:07:48.309Z,11.2
2022-10-02T05:10:19.385Z,11.2
2022-10-02T05:17:48.399Z,11.2
2022-10-02T05:20:18.500Z,11.3
2022-10-02T05:22:48.462Z,11.1
2022-10-02T05:25:18.468Z,11.1
2022-10-02T05:27:48.546Z,11.1
2022-10-02T05:32:48.565Z,11.2
2022-10-02T05:37:48.585Z,11.3
2022-10-02T05:40:18.635Z,11.3
2022-10-02T05:42:48.638Z,11.4
2022-10-02T05:45:18.662Z,11.4
2022-10-02T05:50:18.756Z,11.6
2022-10-02T05:57:48.779Z,11.7
2022-10-02T06:00:18.814Z,11.7
2022-10-02T06:07:48.887Z,11.8
2022-10-02T06:10:18.911Z,11.8
2022-10-02T06:12:48.930Z,11.8
2022-10-02T06:20:19.015Z,11.8
2022-10-02T06:25:19.039Z,11.7
2022-10-02T06:27:49.173Z,11.7
2022-10-02T06:32:49.132Z,11.8
2022-10-02T06:35:19.150Z,11.8
2022-10-02T06:37:49.182Z,11.7
2022-10-02T06:40:19.197Z,11.7
2022-10-02T06:45:19.247Z,11.8
2022-10-02T06:47:49.307Z,11.8
2022-10-02T06:50:19.275Z,11.8
2022-10-02T06:52:49.297Z,11.9
2022-10-02T07:00:19.366Z,12.1
2022-10-02T07:02:49.398Z,12.1
2022-10-02T07:07:49.438Z,12.3
2022-10-02T07:10:19.483Z,12.3
2022-10-02T07:12:49.497Z,12.3
2022-10-02T07:15:19.502Z,12.3
2022-10-02T07:20:19.557Z,12.4
2022-10-02T07:22:49.591Z,12.4
2022-10-02T07:25:19.604Z,12.5
2022-10-02T07:27:49.675Z,12.6
2022-10-02T07:30:19.662Z,12.6
2022-10-02T07:35:19.697Z,12.7
2022-10-02T07:37:49.717Z,12.6
2022-10-02T07:40:19.752Z,12.7
2022-10-02T07:45:19.807Z,12.7
2022-10-02T07:47:49.809Z,12.8
2022-10-02T07:50:19.833Z,12.8
2022-10-02T07:52:49.875Z,12.8
2022-10-02T07:55:19.890Z,12.9
2022-10-02T08:00:19.992Z,13.1
2022-10-02T08:02:50.060Z,13.3
2022-10-02T08:05:20.009Z,13.4
2022-10-02T08:12:50.044Z,13.6
2022-10-02T08:15:20.076Z,13.6
2022-10-02T08:17:50.124Z,13.7
2022-10-02T08:20:20.141Z,13.7
2022-10-02T08:22:50.154Z,13.8
2022-10-02T08:25:20.184Z,13.8
2022-10-02T08:27:57.246Z,13.9
2022-10-02T08:30:20.222Z,13.9
2022-10-02T08:35:20.266Z,13.9
2022-10-02T08:37:50.300Z,14
2022-10-02T08:40:20.323Z,14.1
2022-10-02T08:47:50.390Z,14.3
2022-10-02T08:50:20.413Z,14.4
2022-10-02T08:52:50.443Z,14.4
2022-10-02T08:55:20.465Z,14.5
2022-10-02T08:57:50.494Z,14.6
2022-10-02T09:07:50.564Z,14.5
2022-10-02T09:10:20.591Z,14.5
2022-10-02T09:12:50.621Z,14.5
2022-10-02T09:15:20.635Z,14.6
2022-10-02T09:17:50.680Z,14.7
2022-10-02T09:25:20.741Z,14.8
2022-10-02T09:27:50.798Z,14.9
2022-10-02T09:30:20.785Z,14.9
2022-10-02T09:35:27.845Z,14.9
2022-10-02T09:37:50.926Z,15
2022-10-02T09:40:20.869Z,15
2022-10-02T09:42:50.905Z,15.2
2022-10-02T09:45:20.965Z,15.1
2022-10-02T09:47:50.944Z,15.2
2022-10-02T09:50:20.980Z,15.4
2022-10-02T09:55:21.012Z,15.6
2022-10-02T10:00:21.101Z,15.6
2022-10-02T10:07:51.121Z,15.8
2022-10-02T10:15:21.207Z,16
2022-10-02T10:22:51.283Z,16.2
2022-10-02T10:25:21.311Z,16.29
2022-10-02T10:35:21.395Z,16.5
2022-10-02T10:37:51.432Z,16.7
2022-10-02T10:40:28.458Z,16.6
2022-10-02T10:45:21.871Z,16.79
2022-10-02T10:47:51.507Z,16.7
2022-10-02T10:50:21.536Z,16.79
2022-10-02T10:52:51.564Z,16.7
2022-10-02T10:55:21.588Z,16.7
2022-10-02T10:57:51.611Z,16.7
2022-10-02T11:00:21.631Z,16.79
2022-10-02T11:02:51.644Z,16.9
2022-10-02T11:05:21.701Z,16.9
2022-10-02T11:07:51.695Z,17
2022-10-02T11:12:51.737Z,17
2022-10-02T11:20:21.844Z,16.7
2022-10-02T11:22:51.834Z,16.7
2022-10-02T11:27:51.968Z,16.79
2022-10-02T11:30:21.915Z,16.79
2022-10-02T11:35:21.957Z,16.7
2022-10-02T11:40:21.997Z,16.7
2022-10-02T11:42:52.027Z,16.6
2022-10-02T11:45:22.056Z,16.6
2022-10-02T11:47:52.079Z,16.7
2022-10-02T11:50:22.106Z,16.79
2022-10-02T11:52:52.121Z,16.9
2022-10-02T11:55:22.140Z,16.7
2022-10-02T11:57:52.159Z,16.5
2022-10-02T12:00:22.184Z,16.6
2022-10-02T12:05:22.255Z,16.9
2022-10-02T12:10:22.277Z,16.7
2022-10-02T12:12:52.301Z,16.6
2022-10-02T12:15:22.349Z,16.7
2022-10-02T12:17:52.364Z,16.6
2022-10-02T12:20:22.375Z,16.6
2022-10-02T12:25:22.422Z,16.6
2022-10-02T12:27:52.481Z,16.79
2022-10-02T12:35:22.527Z,16.79
2022-10-02T12:40:22.559Z,16.9
2022-10-02T12:45:22.620Z,16.9
2022-10-02T12:47:52.646Z,16.7
2022-10-02T12:50:22.730Z,16.6
2022-10-02T12:57:52.733Z,17.4
2022-10-02T13:00:22.763Z,17.4
2022-10-02T13:03:00.305Z,17.4
2022-10-02T13:05:22.809Z,17.2
2022-10-02T13:10:22.857Z,17.1
2022-10-02T13:12:52.883Z,17.2
2022-10-02T13:15:22.889Z,17.2
2022-10-02T13:17:52.909Z,17
2022-10-02T13:20:22.950Z,16.9
2022-10-02T13:22:52.955Z,16.79
2022-10-02T13:25:22.989Z,16.7
2022-10-02T13:27:53.075Z,16.6
2022-10-02T13:30:23.030Z,16.6
2022-10-02T13:35:23.096Z,16.7
2022-10-02T13:37:53.099Z,16.7
2022-10-02T13:40:23.129Z,16.9
2022-10-02T13:42:53.381Z,17.1
2022-10-02T13:45:23.195Z,17.1
2022-10-02T13:47:53.200Z,17.1
2022-10-02T13:50:23.239Z,17.1
2022-10-02T13:52:53.481Z,17.2
2022-10-02T13:55:23.261Z,17.4
2022-10-02T13:57:53.293Z,17.7
2022-10-02T14:00:23.381Z,17.9
2022-10-02T14:02:53.337Z,18
2022-10-02T14:05:23.352Z,18.1
2022-10-02T14:07:53.386Z,18.1
2022-10-02T14:10:23.402Z,18
2022-10-02T14:12:53.426Z,18.2
2022-10-02T14:15:23.456Z,18.6
2022-10-02T14:17:53.502Z,18.9
2022-10-02T14:25:23.553Z,21.7
2022-10-02T14:27:53.609Z,22
2022-10-02T14:40:23.678Z,22.9
2022-10-02T14:42:53.695Z,22.2
2022-10-02T14:45:23.774Z,22.9
2022-10-02T14:47:53.758Z,23.5
2022-10-02T14:50:23.774Z,24.4
2022-10-02T14:52:53.806Z,24.5
2022-10-02T14:55:23.827Z,25.8
2022-10-02T14:57:53.847Z,26.7
2022-10-02T15:00:23.871Z,26.7
2022-10-02T15:02:53.885Z,26.7
2022-10-02T15:05:23.903Z,26.1
2022-10-02T15:07:53.943Z,26.1
2022-10-02T15:10:23.969Z,26
2022-10-02T15:12:56.445Z,26.3
2022-10-02T15:15:24.048Z,26.9
2022-10-02T15:17:54.032Z,26.8
2022-10-02T15:25:24.115Z,27.5
2022-10-02T15:27:54.164Z,26.6
2022-10-02T15:30:24.158Z,27.2
2022-10-02T15:32:54.168Z,27.8
2022-10-02T15:35:24.198Z,26.9
2022-10-02T15:37:54.227Z,27
2022-10-02T15:45:24.332Z,26.6
2022-10-02T15:47:54.316Z,25.7
2022-10-02T15:50:24.333Z,26
2022-10-02T15:52:54.363Z,26.1
2022-10-02T15:55:24.396Z,25.4
2022-10-02T15:57:54.403Z,25
2022-10-02T16:00:24.443Z,25.1
2022-10-02T16:02:54.464Z,24.9
2022-10-02T16:05:24.480Z,24.6
2022-10-02T16:08:01.553Z,24.6
2022-10-02T16:10:24.537Z,24.3
2022-10-02T16:12:54.564Z,24.4
2022-10-02T16:15:24.570Z,23.5
2022-10-02T16:17:54.600Z,22.1
2022-10-02T16:20:24.624Z,20
2022-10-02T16:22:54.667Z,18.7
2022-10-02T16:25:24.688Z,18.2
2022-10-02T16:27:54.706Z,17.7
2022-10-02T16:30:24.729Z,17.4
2022-10-02T16:35:24.781Z,17.1
2022-10-02T16:37:54.813Z,16.9
2022-10-02T16:40:24.831Z,16.6
2022-10-02T16:47:54.919Z,16.2
2022-10-02T16:50:24.940Z,16.1
2022-10-02T16:52:54.949Z,15.9
2022-10-02T16:55:24.977Z,15.8
2022-10-02T16:58:02.015Z,15.6
2022-10-02T17:00:25.018Z,15.5
2022-10-02T17:05:25.074Z,15.4
2022-10-02T17:07:55.253Z,15.3
2022-10-02T17:10:25.318Z,15.1
2022-10-02T17:12:55.121Z,15
2022-10-02T17:15:25.166Z,14.9
2022-10-02T17:17:55.198Z,14.7
2022-10-02T17:20:25.209Z,14.7
2022-10-02T17:25:25.253Z,14.4
2022-10-02T17:32:55.315Z,14
2022-10-02T17:35:25.376Z,14
2022-10-02T17:37:55.363Z,14
2022-10-02T17:40:25.395Z,13.9
2022-10-02T17:42:55.428Z,13.7
2022-10-02T17:45:32.484Z,13.6
2022-10-02T17:47:55.463Z,13.6
2022-10-02T17:50:25.496Z,13.5
2022-10-02T17:52:55.919Z,13.5
2022-10-02T17:55:25.548Z,13.6
2022-10-02T17:57:55.548Z,13.4
2022-10-02T18:00:25.598Z,13.4
2022-10-02T18:02:55.606Z,13.3
2022-10-02T18:07:55.645Z,13.3
2022-10-02T18:15:25.731Z,12.9
2022-10-02T18:17:55.745Z,13
2022-10-02T18:22:55.791Z,13
2022-10-02T18:25:25.809Z,12.9
2022-10-02T18:27:55.964Z,12.9
2022-10-02T18:35:25.949Z,12.8
2022-10-02T18:37:55.954Z,12.8
2022-10-02T18:40:25.959Z,12.7
2022-10-02T18:42:55.994Z,12.7
2022-10-02T18:45:26.018Z,12.7
2022-10-02T18:47:56.040Z,12.7
2022-10-02T18:52:56.083Z,12.5
2022-10-02T18:55:26.113Z,12.5
2022-10-02T18:57:56.142Z,12.4
2022-10-02T19:00:26.162Z,12.3
2022-10-02T19:02:56.165Z,12.3
2022-10-02T19:05:26.192Z,12.2
2022-10-02T19:07:56.231Z,12.2
2022-10-02T19:10:26.246Z,12.2
2022-10-02T19:12:56.294Z,12.1
2022-10-02T19:15:26.293Z,12.1
2022-10-02T19:17:56.324Z,12.2
2022-10-02T19:20:26.338Z,12
2022-10-02T19:22:56.366Z,12
2022-10-02T19:25:26.399Z,12
2022-10-02T19:32:56.450Z,11.7
2022-10-02T19:37:56.513Z,11.8
2022-10-02T19:40:26.538Z,11.8
2022-10-02T19:45:26.923Z,11.7
2022-10-02T19:50:26.630Z,11.6
2022-10-02T19:52:56.660Z,11.5
2022-10-02T19:55:26.681Z,11.4
2022-10-02T19:58:03.733Z,11.5
2022-10-02T20:00:26.722Z,11.5
2022-10-02T20:02:56.748Z,11.6
2022-10-02T20:05:33.802Z,11.6
2022-10-02T20:07:56.779Z,11.6
2022-10-02T20:10:26.804Z,11.7
2022-10-02T20:12:56.829Z,11.8
2022-10-02T20:15:33.887Z,11.8
2022-10-02T20:17:56.899Z,11.7
2022-10-02T20:20:26.913Z,11.8
2022-10-02T20:22:56.928Z,11.9
2022-10-02T20:25:33.968Z,11.9
2022-10-02T20:27:57.016Z,11.9
2022-10-02T20:30:27.001Z,11.9
2022-10-02T20:32:57.035Z,12.1
2022-10-02T20:35:27.049Z,12.2
2022-10-02T20:37:57.059Z,12.2
2022-10-02T20:45:27.207Z,12.2
2022-10-02T20:47:57.148Z,12.2
2022-10-02T20:50:27.190Z,12.1
2022-10-02T20:52:57.217Z,12
2022-10-02T20:55:27.223Z,12
2022-10-02T20:58:01.131Z,11.8
2022-10-02T21:02:57.296Z,11.7
2022-10-02T21:05:27.322Z,11.7
2022-10-02T21:07:57.360Z,11.7
2022-10-02T21:10:27.365Z,11.6
2022-10-02T21:12:57.406Z,11.6
2022-10-02T21:15:27.413Z,11.5
2022-10-02T21:17:57.444Z,11.5
2022-10-02T21:22:57.507Z,11.2
2022-10-02T21:27:57.598Z,11.1
2022-10-02T21:30:27.572Z,11.2
2022-10-02T21:32:57.596Z,11.2
2022-10-02T21:35:27.611Z,11.1
2022-10-02T21:37:57.637Z,11
2022-10-02T21:40:27.661Z,11
2022-10-02T21:42:57.695Z,11
2022-10-02T21:45:27.701Z,10.9
2022-10-02T21:47:57.718Z,10.9
2022-10-02T21:50:27.749Z,10.9
2022-10-02T21:52:57.771Z,10.9
2022-10-02T21:55:27.790Z,10.9
2022-10-02T21:57:57.814Z,10.9
2022-10-02T22:00:27.854Z,10.8
2022-10-02T22:02:57.866Z,10.7
2022-10-02T22:05:27.944Z,10.7
2022-10-02T22:07:57.912Z,10.7
2022-10-02T22:10:27.923Z,10.7
2022-10-02T22:15:27.977Z,10.7
2022-10-02T22:17:57.995Z,10.6
2022-10-02T22:20:28.013Z,10.6
2022-10-02T22:22:58.040Z,10.6
2022-10-02T22:25:28.067Z,10.6
2022-10-02T22:27:58.165Z,10.6
2022-10-02T22:32:58.121Z,10.6
2022-10-02T22:35:28.169Z,10.6
2022-10-02T22:37:58.169Z,10.6
2022-10-02T22:40:28.195Z,10.5
2022-10-02T22:42:58.234Z,10.5
2022-10-02T22:45:28.262Z,10.4
2022-10-02T22:47:58.271Z,10.3
2022-10-02T22:50:28.311Z,10.4
2022-10-02T22:52:58.331Z,10.3
2022-10-02T22:55:28.359Z,10.3
2022-10-02T22:57:58.361Z,10.2
2022-10-02T23:00:28.413Z,10.1
2022-10-02T23:02:58.474Z,10.1
2022-10-02T23:05:28.443Z,10.1
2022-10-02T23:07:58.461Z,10.1
2022-10-02T23:10:28.487Z,10.1
2022-10-02T23:12:58.521Z,10.1
2022-10-02T23:15:28.548Z,10
2022-10-02T23:17:58.555Z,9.89
2022-10-02T23:20:28.616Z,9.89
2022-10-02T23:22:58.615Z,9.89
2022-10-02T23:25:28.649Z,9.8
2022-10-02T23:27:58.739Z,9.89
2022-10-02T23:30:28.699Z,9.8
2022-10-02T23:32:58.696Z,9.7
2022-10-02T23:35:28.743Z,9.7
2022-10-02T23:37:58.744Z,9.8
2022-10-02T23:40:28.792Z,9.8
2022-10-02T23:42:58.817Z,9.8
2022-10-02T23:47:58.848Z,9.8
2022-10-02T23:50:28.885Z,9.8
2022-10-02T23:52:58.909Z,9.7
2022-10-02T23:55:28.911Z,9.8
